Mills Orchard, California
Current Conditions -  °F | °C
As of 7:35 PM on Friday 24 Oct 2014 (Local Time) from KCIC Reporting Station
Clear Clear  
Wind Chill: 68°   Ceiling: Unl
Heat Index: 68°   Visibility: 10mi
Dew Point: 46°   Wind: 8mph
Humidity: 46%   Direction: 110°ESE
Pressure: 29.84"   Gusts: NA
Location:  39.7429°N, 122.012°W
Report Text: KCIC 250235Z AUTO 11007KT 10SM CLR 20/08 A2984 RMK AO1
Loading
Personal Weather Stations






























Interactive Weather Map
Tropical Storm Tracking
New forecast layout! Learn more

10-Day Weather Forecast

Advertisements
Track Severe Weather on mobile